Terminal Aerodrome Forecast
Issued by NWS

Home | Current Version | Previous Version | Text Only | Print | Product List | Glossary On
Versions: 1 2 3 4 5 6 7 8 9 10 11 12 13 14 15 16 17 18
000
FTUS46 KPDT 180500
TAFBDN
TAF
KBDN 180521Z 1806/1906 VRB04KT P6SM BKN080 BKN110
     FM181700 18007KT P6SM SCT070 BKN100
     FM182100 30008G15KT P6SM VCTS SCT060CB BKN090=

USA.gov is the U.S. government's official web portal to all federal, state and local government web resources and services.